Terminal Aerodrome Forecast
Issued by NWS Melbourne, FL

Home | Current Version | Previous Version | Text Only | Print | Product List | Glossary On
Versions: 1 2 3 4 5 6 7 8 9 10 11 12 13
160
FTUS42 KMLB 191138
TAFVRB
TAF
KVRB 191138Z 1912/2012 35004KT P6SM VCSH FEW025 SCT040 BKN080
      TEMPO 1912/1915 05012G18KT 5SM SHRA BKN025 OVC040
     FM191500 03010KT P6SM SCT025 BKN100
     FM191800 04011KT P6SM VCSH SCT030 BKN080
      TEMPO 1918/1922 3SM SHRA BKN020 OVC040
     FM200300 07005KT P6SM SCT030 SCT120=

USA.gov is the U.S. government's official web portal to all federal, state and local government web resources and services.